sim
Sign-in with your pilot id or email,
or register
Callsign
Passwort

Schedule Details

Flight Number: OEO3243
Departure: Kristiansand Airport (ENCN) at 09:10
Arrival: Munich Airport (EDDM) at 11:15

Weather Information
Getting current METAR information for ENCN 210220Z AUTO 05004KT 9999 NCD 09/09 Q1017
Getting current METAR information for EDDM 210220Z VRB02KT CAVOK 09/09 Q1016 NOSIG

Schedule Frequency

Route Map